sensor_id;sensor_type;location;lat;lon;timestamp;pressure;altitude;pressure_sealevel;temperature;humidity
61474;BME280;53694;49.784;30.150;2023-05-01T00:00:32;99335.51;;;6.79;62.43
61474;BME280;53694;49.784;30.150;2023-05-01T00:01:35;99341.76;;;6.80;62.50
61474;BME280;53694;49.784;30.150;2023-05-01T00:02:37;99337.80;;;6.77;62.52
61474;BME280;53694;49.784;30.150;2023-05-01T00:03:38;99335.42;;;6.75;62.36
61474;BME280;53694;49.784;30.150;2023-05-01T00:04:40;99342.79;;;6.75;62.16
61474;BME280;53694;49.784;30.150;2023-05-01T00:05:41;99338.48;;;6.74;62.24
61474;BME280;53694;49.784;30.150;2023-05-01T00:06:43;99338.16;;;6.75;62.30
61474;BME280;53694;49.784;30.150;2023-05-01T00:07:44;99337.33;;;6.75;62.21
61474;BME280;53694;49.784;30.150;2023-05-01T00:08:46;99332.34;;;6.77;62.29
61474;BME280;53694;49.784;30.150;2023-05-01T00:09:49;99338.59;;;6.78;62.02
61474;BME280;53694;49.784;30.150;2023-05-01T00:10:51;99337.13;;;6.80;61.92
61474;BME280;53694;49.784;30.150;2023-05-01T00:11:53;99335.98;;;6.81;61.85
61474;BME280;53694;49.784;30.150;2023-05-01T00:12:54;99343.02;;;6.82;61.81
61474;BME280;53694;49.784;30.150;2023-05-01T00:13:56;99347.33;;;6.83;61.89
61474;BME280;53694;49.784;30.150;2023-05-01T00:14:57;99347.33;;;6.83;62.87
61474;BME280;53694;49.784;30.150;2023-05-01T00:15:59;99349.62;;;6.81;63.86
61474;BME280;53694;49.784;30.150;2023-05-01T00:17:00;99351.89;;;6.79;64.86
61474;BME280;53694;49.784;30.150;2023-05-01T00:18:02;99353.70;;;6.75;64.98
61474;BME280;53694;49.784;30.150;2023-05-01T00:19:04;99360.55;;;6.69;64.59
61474;BME280;53694;49.784;30.150;2023-05-01T00:20:06;99363.51;;;6.64;63.81
61474;BME280;53694;49.784;30.150;2023-05-01T00:21:08;99362.59;;;6.60;63.99
61474;BME280;53694;49.784;30.150;2023-05-01T00:22:10;99357.46;;;6.58;63.94
61474;BME280;53694;49.784;30.150;2023-05-01T00:23:11;99357.38;;;6.55;65.06
61474;BME280;53694;49.784;30.150;2023-05-01T00:24:14;99359.63;;;6.53;66.54
61474;BME280;53694;49.784;30.150;2023-05-01T00:25:15;99368.05;;;6.47;67.51
61474;BME280;53694;49.784;30.150;2023-05-01T00:26:17;99370.21;;;6.42;67.96
61474;BME280;53694;49.784;30.150;2023-05-01T00:27:19;99369.17;;;6.34;67.96
61474;BME280;53694;49.784;30.150;2023-05-01T00:28:20;99371.30;;;6.29;67.96
61474;BME280;53694;49.784;30.150;2023-05-01T00:29:22;99375.87;;;6.24;68.24
61474;BME280;53694;49.784;30.150;2023-05-01T00:30:23;99362.78;;;6.18;68.24
61474;BME280;53694;49.784;30.150;2023-05-01T00:31:25;99358.34;;;6.13;68.23
61474;BME280;53694;49.784;30.150;2023-05-01T00:32:26;99362.09;;;6.09;68.29
61474;BME280;53694;49.784;30.150;2023-05-01T00:33:28;99362.75;;;6.06;68.60
61474;BME280;53694;49.784;30.150;2023-05-01T00:34:29;99361.04;;;6.01;68.76
61474;BME280;53694;49.784;30.150;2023-05-01T00:35:31;99361.58;;;5.94;69.02
61474;BME280;53694;49.784;30.150;2023-05-01T00:36:32;99361.58;;;5.94;69.02
61474;BME280;53694;49.784;30.150;2023-05-01T00:37:34;99359.99;;;5.93;68.97
61474;BME280;53694;49.784;30.150;2023-05-01T00:38:35;99362.56;;;5.90;69.38
61474;BME280;53694;49.784;30.150;2023-05-01T00:39:37;99367.56;;;5.88;69.49
61474;BME280;53694;49.784;30.150;2023-05-01T00:40:44;99365.98;;;5.87;69.64
61474;BME280;53694;49.784;30.150;2023-05-01T00:41:46;99370.64;;;5.86;69.64
61474;BME280;53694;49.784;30.150;2023-05-01T00:42:47;99358.59;;;5.87;69.85
61474;BME280;53694;49.784;30.150;2023-05-01T00:43:49;99358.91;;;5.86;69.71
61474;BME280;53694;49.784;30.150;2023-05-01T00:44:50;99358.91;;;5.86;69.86
61474;BME280;53694;49.784;30.150;2023-05-01T00:45:52;99358.91;;;5.86;69.61
61474;BME280;53694;49.784;30.150;2023-05-01T00:46:54;99369.50;;;5.87;69.28
61474;BME280;53694;49.784;30.150;2023-05-01T00:47:55;99364.49;;;5.89;68.66
61474;BME280;53694;49.784;30.150;2023-05-01T00:48:57;99363.36;;;5.90;68.21
61474;BME280;53694;49.784;30.150;2023-05-01T00:49:59;99374.77;;;5.92;67.63
61474;BME280;53694;49.784;30.150;2023-05-01T00:51:06;99370.58;;;5.95;67.61
61474;BME280;53694;49.784;30.150;2023-05-01T00:52:08;99370.67;;;5.98;67.31
61474;BME280;53694;49.784;30.150;2023-05-01T00:53:10;99370.80;;;6.02;66.80
61474;BME280;53694;49.784;30.150;2023-05-01T00:54:11;99373.66;;;6.06;66.50
61474;BME280;53694;49.784;30.150;2023-05-01T00:55:13;99377.97;;;6.07;66.21
61474;BME280;53694;49.784;30.150;2023-05-01T00:56:15;99376.95;;;6.11;66.24
61474;BME280;53694;49.784;30.150;2023-05-01T00:57:18;99387.20;;;6.14;65.92
61474;BME280;53694;49.784;30.150;2023-05-01T00:58:20;99385.39;;;6.18;65.60
61474;BME280;53694;49.784;30.150;2023-05-01T00:59:22;99389.03;;;6.22;65.44
61474;BME280;53694;49.784;30.150;2023-05-01T01:00:23;99388.81;;;6.28;65.10
61474;BME280;53694;49.784;30.150;2023-05-01T01:01:25;99391.66;;;6.31;64.68
61474;BME280;53694;49.784;30.150;2023-05-01T01:02:27;99387.91;;;6.36;64.54
61474;BME280;53694;49.784;30.150;2023-05-01T01:03:29;99388.48;;;6.41;64.23
61474;BME280;53694;49.784;30.150;2023-05-01T01:04:31;99392.13;;;6.45;64.17
61474;BME280;53694;49.784;30.150;2023-05-01T01:05:40;99391.92;;;6.50;64.14
61474;BME280;53694;49.784;30.150;2023-05-01T01:06:51;99393.95;;;6.54;64.20
61474;BME280;53694;49.784;30.150;2023-05-01T01:08:14;99397.16;;;6.56;64.30
61474;BME280;53694;49.784;30.150;2023-05-01T01:10:45;99394.55;;;6.59;64.41
61474;BME280;53694;49.784;30.150;2023-05-01T01:14:32;99394.87;;;6.58;64.88
61474;BME280;53694;49.784;30.150;2023-05-01T01:15:52;99397.59;;;6.58;64.97
61474;BME280;53694;49.784;30.150;2023-05-01T01:19:35;99392.49;;;6.56;65.80
61474;BME280;53694;49.784;30.150;2023-05-01T01:20:42;99387.83;;;6.57;65.95
61474;BME280;53694;49.784;30.150;2023-05-01T01:21:45;99391.03;;;6.59;66.09
61474;BME280;53694;49.784;30.150;2023-05-01T01:26:03;99398.52;;;6.62;66.67
61474;BME280;53694;49.784;30.150;2023-05-01T01:29:59;99389.09;;;6.71;66.92
61474;BME280;53694;49.784;30.150;2023-05-01T01:33:54;99395.34;;;6.84;67.92
61474;BME280;53694;49.784;30.150;2023-05-01T01:35:00;99400.58;;;6.89;67.89
61474;BME280;53694;49.784;30.150;2023-05-01T01:36:05;99400.58;;;6.89;67.89
61474;BME280;53694;49.784;30.150;2023-05-01T01:37:24;99399.08;;;6.92;68.23
61474;BME280;53694;49.784;30.150;2023-05-01T01:38:29;99394.88;;;6.94;68.28
61474;BME280;53694;49.784;30.150;2023-05-01T01:39:44;99392.58;;;6.96;68.73
61474;BME280;53694;49.784;30.150;2023-05-01T01:41:07;99398.52;;;6.98;68.95
61474;BME280;53694;49.784;30.150;2023-05-01T01:42:12;99396.22;;;7.00;68.98
61474;BME280;53694;49.784;30.150;2023-05-01T01:43:16;99396.34;;;7.04;69.19
61474;BME280;53694;49.784;30.150;2023-05-01T01:45:46;99389.84;;;7.09;69.44
61474;BME280;53694;49.784;30.150;2023-05-01T01:46:44;99394.19;;;7.10;69.62
61474;BME280;53694;49.784;30.150;2023-05-01T01:47:47;99396.56;;;7.11;69.76
61474;BME280;53694;49.784;30.150;2023-05-01T01:48:51;99392.69;;;7.12;69.95
61474;BME280;53694;49.784;30.150;2023-05-01T01:49:55;99400.55;;;7.14;70.29
61474;BME280;53694;49.784;30.150;2023-05-01T01:50:59;99399.41;;;7.15;70.51
61474;BME280;53694;49.784;30.150;2023-05-01T01:52:04;99397.83;;;7.14;70.55
61474;BME280;53694;49.784;30.150;2023-05-01T01:53:08;99397.70;;;7.22;70.62
61474;BME280;53694;49.784;30.150;2023-05-01T01:54:12;99396.39;;;7.44;70.26
61474;BME280;53694;49.784;30.150;2023-05-01T01:55:16;99392.28;;;7.79;69.62
61474;BME280;53694;49.784;30.150;2023-05-01T01:56:20;99399.95;;;8.17;68.51
61474;BME280;53694;49.784;30.150;2023-05-01T01:57:23;99397.09;;;8.57;67.40
61474;BME280;53694;49.784;30.150;2023-05-01T01:58:25;99405.30;;;8.89;66.21
61474;BME280;53694;49.784;30.150;2023-05-01T01:59:33;99400.23;;;9.07;65.39
61474;BME280;53694;49.784;30.150;2023-05-01T02:00:36;99403.84;;;9.11;64.99
61474;BME280;53694;49.784;30.150;2023-05-01T02:01:39;99406.41;;;9.04;64.89
61474;BME280;53694;49.784;30.150;2023-05-01T02:02:42;99404.66;;;8.95;65.05
61474;BME280;53694;49.784;30.150;2023-05-01T02:03:45;99411.48;;;8.86;65.30
61474;BME280;53694;49.784;30.150;2023-05-01T02:04:48;99409.62;;;8.74;65.56
61474;BME280;53694;49.784;30.150;2023-05-01T02:05:53;99410.17;;;8.64;65.89
61474;BME280;53694;49.784;30.150;2023-05-01T02:06:57;99415.37;;;8.53;66.35
61474;BME280;53694;49.784;30.150;2023-05-01T02:08:01;99409.64;;;8.42;66.87
61474;BME280;53694;49.784;30.150;2023-05-01T02:09:05;99412.84;;;8.32;67.26
61474;BME280;53694;49.784;30.150;2023-05-01T02:10:12;99412.22;;;8.23;67.63
61474;BME280;53694;49.784;30.150;2023-05-01T02:11:14;99414.78;;;8.16;68.08
61474;BME280;53694;49.784;30.150;2023-05-01T02:12:18;99419.59;;;8.07;68.58
61474;BME280;53694;49.784;30.150;2023-05-01T02:13:21;99419.42;;;7.99;68.98
61474;BME280;53694;49.784;30.150;2023-05-01T02:14:25;99416.48;;;7.92;69.29
61474;BME280;53694;49.784;30.150;2023-05-01T02:15:27;99412.85;;;7.88;69.62
61474;BME280;53694;49.784;30.150;2023-05-01T02:16:32;99418.22;;;7.85;69.98
61474;BME280;53694;49.784;30.150;2023-05-01T02:17:35;99416.20;;;7.82;70.30
61474;BME280;53694;49.784;30.150;2023-05-01T02:18:39;99420.41;;;7.79;70.51
61474;BME280;53694;49.784;30.150;2023-05-01T02:19:42;99422.68;;;7.77;70.76
61474;BME280;53694;49.784;30.150;2023-05-01T02:20:45;99416.99;;;7.82;71.10
61474;BME280;53694;49.784;30.150;2023-05-01T02:21:47;99419.42;;;7.99;70.98
61474;BME280;53694;49.784;30.150;2023-05-01T02:22:50;99421.78;;;8.29;70.40
61474;BME280;53694;49.784;30.150;2023-05-01T02:23:53;99422.70;;;8.65;69.54
61474;BME280;53694;49.784;30.150;2023-05-01T02:24:56;99424.00;;;9.03;68.52
61474;BME280;53694;49.784;30.150;2023-05-01T02:25:59;99424.88;;;9.42;67.38
61474;BME280;53694;49.784;30.150;2023-05-01T02:27:10;99426.29;;;9.71;66.20
61474;BME280;53694;49.784;30.150;2023-05-01T02:28:12;99434.01;;;9.85;65.50
61474;BME280;53694;49.784;30.150;2023-05-01T02:29:15;99436.41;;;9.86;65.18
61474;BME280;53694;49.784;30.150;2023-05-01T02:30:17;99431.56;;;9.80;65.20
61474;BME280;53694;49.784;30.150;2023-05-01T02:31:19;99432.48;;;9.68;65.30
61474;BME280;53694;49.784;30.150;2023-05-01T02:32:20;99436.89;;;9.53;65.58
61474;BME280;53694;49.784;30.150;2023-05-01T02:33:22;99441.70;;;9.40;65.95
61474;BME280;53694;49.784;30.150;2023-05-01T02:34:23;99439.36;;;9.23;66.79
61474;BME280;53694;49.784;30.150;2023-05-01T02:35:25;99432.65;;;9.05;67.78
61474;BME280;53694;49.784;30.150;2023-05-01T02:36:27;99440.81;;;8.85;68.30
61474;BME280;53694;49.784;30.150;2023-05-01T02:37:28;99439.22;;;8.68;68.79
61474;BME280;53694;49.784;30.150;2023-05-01T02:38:30;99438.88;;;8.54;69.61
61474;BME280;53694;49.784;30.150;2023-05-01T02:39:32;99438.16;;;8.41;70.24
61474;BME280;53694;49.784;30.150;2023-05-01T02:40:35;99443.66;;;8.29;70.62
61474;BME280;53694;49.784;30.150;2023-05-01T02:41:39;99444.16;;;8.19;71.14
61474;BME280;53694;49.784;30.150;2023-05-01T02:42:42;99434.36;;;8.18;71.43
61474;BME280;53694;49.784;30.150;2023-05-01T02:43:45;99437.47;;;8.32;71.42
61474;BME280;53694;49.784;30.150;2023-05-01T02:44:55;99438.61;;;8.59;71.06
61474;BME280;53694;49.784;30.150;2023-05-01T02:45:57;99446.47;;;8.92;70.39
61474;BME280;53694;49.784;30.150;2023-05-01T02:46:59;99439.86;;;9.29;69.47
61474;BME280;53694;49.784;30.150;2023-05-01T02:48:04;99446.98;;;9.68;68.45
61474;BME280;53694;49.784;30.150;2023-05-01T02:49:06;99447.36;;;10.06;67.14
61474;BME280;53694;49.784;30.150;2023-05-01T02:50:09;99456.17;;;10.34;65.56
61474;BME280;53694;49.784;30.150;2023-05-01T02:51:11;99450.83;;;10.41;64.99
61474;BME280;53694;49.784;30.150;2023-05-01T02:52:15;99454.29;;;10.38;64.82
61474;BME280;53694;49.784;30.150;2023-05-01T02:53:17;99455.24;;;10.26;64.89
61474;BME280;53694;49.784;30.150;2023-05-01T02:54:19;99460.78;;;10.11;65.17
61474;BME280;53694;49.784;30.150;2023-05-01T02:55:21;99455.69;;;9.90;65.70
61474;BME280;53694;49.784;30.150;2023-05-01T02:56:24;99455.21;;;9.68;66.36
61474;BME280;53694;49.784;30.150;2023-05-01T02:57:26;99462.63;;;9.48;67.03
61474;BME280;53694;49.784;30.150;2023-05-01T02:58:30;99464.61;;;9.32;67.56
61474;BME280;53694;49.784;30.150;2023-05-01T02:59:31;99468.53;;;9.15;68.18
61474;BME280;53694;49.784;30.150;2023-05-01T03:00:33;99465.80;;;8.99;68.75
61474;BME280;53694;49.784;30.150;2023-05-01T03:01:35;99467.83;;;8.87;69.30
61474;BME280;53694;49.784;30.150;2023-05-01T03:02:36;99467.13;;;8.74;69.87
61474;BME280;53694;49.784;30.150;2023-05-01T03:03:38;99460.14;;;8.61;70.41
61474;BME280;53694;49.784;30.150;2023-05-01T03:04:40;99464.53;;;8.49;71.00
61474;BME280;53694;49.784;30.150;2023-05-01T03:05:42;99472.11;;;8.40;71.60
61474;BME280;53694;49.784;30.150;2023-05-01T03:06:44;99461.07;;;8.37;72.05
61474;BME280;53694;49.784;30.150;2023-05-01T03:07:45;99472.74;;;8.49;72.01
61474;BME280;53694;49.784;30.150;2023-05-01T03:08:47;99475.34;;;8.74;71.69
61474;BME280;53694;49.784;30.150;2023-05-01T03:09:48;99467.83;;;9.03;71.04
61474;BME280;53694;49.784;30.150;2023-05-01T03:10:50;99470.97;;;9.36;69.95
61474;BME280;53694;49.784;30.150;2023-05-01T03:11:51;99469.38;;;9.70;68.94
61474;BME280;53694;49.784;30.150;2023-05-01T03:12:53;99471.62;;;10.04;67.84
61474;BME280;53694;49.784;30.150;2023-05-01T03:13:54;99471.70;;;10.26;66.80
61474;BME280;53694;49.784;30.150;2023-05-01T03:14:56;99472.27;;;10.36;65.97
61474;BME280;53694;49.784;30.150;2023-05-01T03:15:58;99471.78;;;10.30;65.95
61474;BME280;53694;49.784;30.150;2023-05-01T03:16:59;99485.63;;;10.18;66.02
61474;BME280;53694;49.784;30.150;2023-05-01T03:18:01;99481.73;;;9.99;66.47
61474;BME280;53694;49.784;30.150;2023-05-01T03:19:02;99482.50;;;9.81;66.91
61474;BME280;53694;49.784;30.150;2023-05-01T03:20:05;99478.97;;;9.61;67.55
61474;BME280;53694;49.784;30.150;2023-05-01T03:21:07;99485.19;;;9.42;68.15
61474;BME280;53694;49.784;30.150;2023-05-01T03:22:08;99483.98;;;9.23;68.71
61474;BME280;53694;49.784;30.150;2023-05-01T03:23:10;99487.89;;;9.07;69.33
61474;BME280;53694;49.784;30.150;2023-05-01T03:24:11;99482.41;;;8.91;69.89
61474;BME280;53694;49.784;30.150;2023-05-01T03:25:13;99491.86;;;8.78;70.53
61474;BME280;53694;49.784;30.150;2023-05-01T03:26:15;99493.45;;;8.63;71.17
61474;BME280;53694;49.784;30.150;2023-05-01T03:27:17;99488.05;;;8.50;71.74
61474;BME280;53694;49.784;30.150;2023-05-01T03:28:18;99495.80;;;8.48;72.00
61474;BME280;53694;49.784;30.150;2023-05-01T03:29:20;99493.54;;;8.82;71.54
61474;BME280;53694;49.784;30.150;2023-05-01T03:30:21;99493.54;;;8.82;71.54
61474;BME280;53694;49.784;30.150;2023-05-01T03:31:23;99492.67;;;9.10;71.25
61474;BME280;53694;49.784;30.150;2023-05-01T03:32:24;99497.73;;;9.43;70.43
61474;BME280;53694;49.784;30.150;2023-05-01T03:33:26;99500.49;;;9.78;69.46
61474;BME280;53694;49.784;30.150;2023-05-01T03:34:27;99494.16;;;10.13;68.33
61474;BME280;53694;49.784;30.150;2023-05-01T03:35:29;99489.67;;;10.43;67.18
61474;BME280;53694;49.784;30.150;2023-05-01T03:36:31;99488.90;;;10.66;66.19
61474;BME280;53694;49.784;30.150;2023-05-01T03:37:32;99500.47;;;10.75;65.64
61474;BME280;53694;49.784;30.150;2023-05-01T03:38:34;99497.28;;;10.73;65.19
61474;BME280;53694;49.784;30.150;2023-05-01T03:39:35;99506.85;;;10.60;65.28
61474;BME280;53694;49.784;30.150;2023-05-01T03:40:37;99497.84;;;10.40;65.32
61474;BME280;53694;49.784;30.150;2023-05-01T03:41:39;99498.14;;;10.15;66.05
61474;BME280;53694;49.784;30.150;2023-05-01T03:42:40;99504.69;;;9.91;66.64
61474;BME280;53694;49.784;30.150;2023-05-01T03:43:42;99503.07;;;9.71;67.31
61474;BME280;53694;49.784;30.150;2023-05-01T03:44:43;99515.14;;;9.50;68.02
61474;BME280;53694;49.784;30.150;2023-05-01T03:45:45;99508.83;;;9.31;68.63
61474;BME280;53694;49.784;30.150;2023-05-01T03:46:47;99513.16;;;9.16;69.23
61474;BME280;53694;49.784;30.150;2023-05-01T03:47:48;99512.36;;;8.99;69.87
61474;BME280;53694;49.784;30.150;2023-05-01T03:48:50;99513.16;;;8.84;70.59
61474;BME280;53694;49.784;30.150;2023-05-01T03:49:51;99513.57;;;8.70;71.09
61474;BME280;53694;49.784;30.150;2023-05-01T03:50:53;99516.05;;;8.60;71.60
61474;BME280;53694;49.784;30.150;2023-05-01T03:51:54;99523.80;;;8.58;72.23
61474;BME280;53694;49.784;30.150;2023-05-01T03:52:56;99516.67;;;8.69;72.20
61474;BME280;53694;49.784;30.150;2023-05-01T03:53:58;99516.52;;;8.93;71.62
61474;BME280;53694;49.784;30.150;2023-05-01T03:54:59;99527.47;;;9.25;70.71
61474;BME280;53694;49.784;30.150;2023-05-01T03:56:01;99527.86;;;9.59;69.74
61474;BME280;53694;49.784;30.150;2023-05-01T03:57:04;99519.28;;;9.95;68.76
61474;BME280;53694;49.784;30.150;2023-05-01T03:58:06;99529.50;;;10.34;67.21
61474;BME280;53694;49.784;30.150;2023-05-01T03:59:07;99520.99;;;10.62;65.89
61474;BME280;53694;49.784;30.150;2023-05-01T04:00:10;99520.83;;;10.74;64.85
61474;BME280;53694;49.784;30.150;2023-05-01T04:01:12;99522.79;;;10.73;64.39
61474;BME280;53694;49.784;30.150;2023-05-01T04:02:14;99514.67;;;10.58;64.47
61474;BME280;53694;49.784;30.150;2023-05-01T04:03:15;99520.25;;;10.42;64.92
61474;BME280;53694;49.784;30.150;2023-05-01T04:04:17;99522.17;;;10.22;64.82
61474;BME280;53694;49.784;30.150;2023-05-01T04:05:18;99521.31;;;9.98;65.26
61474;BME280;53694;49.784;30.150;2023-05-01T04:06:20;99527.04;;;9.74;66.13
61474;BME280;53694;49.784;30.150;2023-05-01T04:07:21;99534.05;;;9.56;66.36
61474;BME280;53694;49.784;30.150;2023-05-01T04:08:23;99521.37;;;9.32;66.73
61474;BME280;53694;49.784;30.150;2023-05-01T04:09:24;99527.13;;;9.11;67.45
61474;BME280;53694;49.784;30.150;2023-05-01T04:10:26;99531.38;;;8.92;68.33
61474;BME280;53694;49.784;30.150;2023-05-01T04:11:27;99531.71;;;8.75;68.75
61474;BME280;53694;49.784;30.150;2023-05-01T04:12:29;99528.22;;;8.62;69.21
61474;BME280;53694;49.784;30.150;2023-05-01T04:13:30;99531.84;;;8.50;69.77
61474;BME280;53694;49.784;30.150;2023-05-01T04:14:32;99530.73;;;8.39;70.19
61474;BME280;53694;49.784;30.150;2023-05-01T04:15:34;99531.22;;;8.29;70.39
61474;BME280;53694;49.784;30.150;2023-05-01T04:16:35;99532.59;;;8.23;70.48
61474;BME280;53694;49.784;30.150;2023-05-01T04:17:37;99539.21;;;8.22;70.74
61474;BME280;53694;49.784;30.150;2023-05-01T04:18:39;99543.98;;;8.37;70.27
61474;BME280;53694;49.784;30.150;2023-05-01T04:19:40;99534.52;;;8.63;69.31
61474;BME280;53694;49.784;30.150;2023-05-01T04:20:41;99536.84;;;9.24;66.21
61474;BME280;53694;49.784;30.150;2023-05-01T04:21:43;99536.84;;;9.24;66.21
61474;BME280;53694;49.784;30.150;2023-05-01T04:22:44;99547.70;;;9.52;65.52
61474;BME280;53694;49.784;30.150;2023-05-01T04:23:46;99546.86;;;9.67;65.13
61474;BME280;53694;49.784;30.150;2023-05-01T04:24:47;99541.09;;;9.72;64.78
61474;BME280;53694;49.784;30.150;2023-05-01T04:25:49;99537.84;;;9.67;63.74
61474;BME280;53694;49.784;30.150;2023-05-01T04:26:51;99543.80;;;9.53;64.10
61474;BME280;53694;49.784;30.150;2023-05-01T04:27:52;99535.26;;;9.23;64.32
61474;BME280;53694;49.784;30.150;2023-05-01T04:28:54;99535.26;;;9.23;64.32
61474;BME280;53694;49.784;30.150;2023-05-01T04:29:55;99547.80;;;9.08;64.77
61474;BME280;53694;49.784;30.150;2023-05-01T04:30:57;99553.28;;;8.92;64.82
61474;BME280;53694;49.784;30.150;2023-05-01T04:31:58;99546.63;;;8.78;65.06
61474;BME280;53694;49.784;30.150;2023-05-01T04:33:00;99544.36;;;8.51;65.98
61474;BME280;53694;49.784;30.150;2023-05-01T04:34:02;99544.36;;;8.51;65.98
61474;BME280;53694;49.784;30.150;2023-05-01T04:35:03;99555.83;;;8.41;66.11
61474;BME280;53694;49.784;30.150;2023-05-01T04:36:06;99554.80;;;8.34;66.41
61474;BME280;53694;49.784;30.150;2023-05-01T04:37:07;99556.95;;;8.28;66.65
61474;BME280;53694;49.784;30.150;2023-05-01T04:38:09;99565.42;;;8.23;66.72
61474;BME280;53694;49.784;30.150;2023-05-01T04:39:10;99548.57;;;8.21;66.57
61474;BME280;53694;49.784;30.150;2023-05-01T04:40:12;99555.52;;;8.18;66.55
61474;BME280;53694;49.784;30.150;2023-05-01T04:41:14;99553.47;;;8.15;66.19
61474;BME280;53694;49.784;30.150;2023-05-01T04:42:15;99553.03;;;8.13;66.43
61474;BME280;53694;49.784;30.150;2023-05-01T04:43:16;99558.86;;;8.12;65.89
61474;BME280;53694;49.784;30.150;2023-05-01T04:44:18;99563.86;;;8.10;65.89
61474;BME280;53694;49.784;30.150;2023-05-01T04:45:20;99561.92;;;8.10;65.99
61474;BME280;53694;49.784;30.150;2023-05-01T04:46:21;99570.92;;;8.11;66.20
61474;BME280;53694;49.784;30.150;2023-05-01T04:47:23;99572.97;;;8.14;65.92
61474;BME280;53694;49.784;30.150;2023-05-01T04:48:24;99572.97;;;8.14;65.81
61474;BME280;53694;49.784;30.150;2023-05-01T04:49:26;99580.03;;;8.15;65.49
61474;BME280;53694;49.784;30.150;2023-05-01T04:50:27;99574.56;;;8.15;65.17
61474;BME280;53694;49.784;30.150;2023-05-01T04:51:29;99568.30;;;8.14;64.52
61474;BME280;53694;49.784;30.150;2023-05-01T04:52:30;99572.97;;;8.14;64.52
61474;BME280;53694;49.784;30.150;2023-05-01T04:53:32;99581.18;;;8.14;64.70
61474;BME280;53694;49.784;30.150;2023-05-01T04:54:33;99586.66;;;8.14;64.26
61474;BME280;53694;49.784;30.150;2023-05-01T04:55:35;99571.39;;;8.13;64.11
61474;BME280;53694;49.784;30.150;2023-05-01T04:56:36;99580.75;;;8.12;64.60
61474;BME280;53694;49.784;30.150;2023-05-01T04:57:38;99580.75;;;8.12;64.14
61474;BME280;53694;49.784;30.150;2023-05-01T04:58:40;99588.95;;;8.12;64.10
61474;BME280;53694;49.784;30.150;2023-05-01T04:59:41;99587.01;;;8.12;64.24
61474;BME280;53694;49.784;30.150;2023-05-01T05:00:43;99587.01;;;8.12;63.89
61474;BME280;53694;49.784;30.150;2023-05-01T05:01:44;99591.69;;;8.12;63.95
61474;BME280;53694;49.784;30.150;2023-05-01T05:02:46;99586.22;;;8.12;63.63
61474;BME280;53694;49.784;30.150;2023-05-01T05:03:47;99588.13;;;8.11;63.95
61474;BME280;53694;49.784;30.150;2023-05-01T05:04:49;99597.95;;;8.12;63.54
61474;BME280;53694;49.784;30.150;2023-05-01T05:05:50;99590.53;;;8.13;63.15
61474;BME280;53694;49.784;30.150;2023-05-01T05:06:52;99594.86;;;8.14;62.89
61474;BME280;53694;49.784;30.150;2023-05-01T05:07:54;99591.77;;;8.15;63.03
61474;BME280;53694;49.784;30.150;2023-05-01T05:08:55;99598.06;;;8.16;63.09
61474;BME280;53694;49.784;30.150;2023-05-01T05:09:57;99604.44;;;8.20;62.55
61474;BME280;53694;49.784;30.150;2023-05-01T05:10:59;99604.44;;;8.20;62.55
61474;BME280;53694;49.784;30.150;2023-05-01T05:12:00;99599.40;;;8.22;62.40
61474;BME280;53694;49.784;30.150;2023-05-01T05:13:02;99595.98;;;8.25;62.19
61474;BME280;53694;49.784;30.150;2023-05-01T05:14:03;99606.20;;;8.28;61.98
61474;BME280;53694;49.784;30.150;2023-05-01T05:15:05;99598.83;;;8.29;61.58
61474;BME280;53694;49.784;30.150;2023-05-01T05:16:07;99604.73;;;8.31;60.93
61474;BME280;53694;49.784;30.150;2023-05-01T05:17:09;99601.64;;;8.32;60.37
61474;BME280;53694;49.784;30.150;2023-05-01T05:18:10;99599.37;;;8.34;60.43
61474;BME280;53694;49.784;30.150;2023-05-01T05:19:12;99608.02;;;8.36;60.15
61474;BME280;53694;49.784;30.150;2023-05-01T05:20:14;99612.39;;;8.37;60.07
61474;BME280;53694;49.784;30.150;2023-05-01T05:21:16;99601.88;;;8.39;59.89
61474;BME280;53694;49.784;30.150;2023-05-01T05:22:17;99611.68;;;8.40;59.04
61474;BME280;53694;49.784;30.150;2023-05-01T05:23:19;99608.94;;;8.40;58.66
61474;BME280;53694;49.784;30.150;2023-05-01T05:24:21;99607.82;;;8.41;58.64
61474;BME280;53694;49.784;30.150;2023-05-01T05:25:23;99613.73;;;8.43;58.47
61474;BME280;53694;49.784;30.150;2023-05-01T05:26:24;99615.31;;;8.44;57.95
61474;BME280;53694;49.784;30.150;2023-05-01T05:27:26;99616.11;;;8.45;58.08
61474;BME280;53694;49.784;30.150;2023-05-01T05:28:28;99628.31;;;8.47;57.97
61474;BME280;53694;49.784;30.150;2023-05-01T05:29:29;99612.33;;;8.49;57.67
61474;BME280;53694;49.784;30.150;2023-05-01T05:30:31;99619.41;;;8.50;57.49
61474;BME280;53694;49.784;30.150;2023-05-01T05:31:33;99628.86;;;8.53;57.27
61474;BME280;53694;49.784;30.150;2023-05-01T05:32:34;99620.31;;;8.55;57.51
61474;BME280;53694;49.784;30.150;2023-05-01T05:33:36;99624.28;;;8.57;57.47
61474;BME280;53694;49.784;30.150;2023-05-01T05:34:40;99633.75;;;8.60;57.32
61474;BME280;53694;49.784;30.150;2023-05-01T05:35:41;99636.92;;;8.62;56.41
61474;BME280;53694;49.784;30.150;2023-05-01T05:36:42;99644.81;;;8.63;55.54
61474;BME280;53694;49.784;30.150;2023-05-01T05:37:44;99640.56;;;8.66;55.53
61474;BME280;53694;49.784;30.150;2023-05-01T05:38:45;99638.61;;;8.66;55.99
61474;BME280;53694;49.784;30.150;2023-05-01T05:39:47;99633.96;;;8.67;55.26
61474;BME280;53694;49.784;30.150;2023-05-01T05:40:49;99642.61;;;8.69;55.14
61474;BME280;53694;49.784;30.150;2023-05-01T05:41:50;99644.66;;;8.72;55.26
61474;BME280;53694;49.784;30.150;2023-05-01T05:42:51;99641.56;;;8.73;55.53
61474;BME280;53694;49.784;30.150;2023-05-01T05:43:53;99645.09;;;8.74;55.67
61474;BME280;53694;49.784;30.150;2023-05-01T05:44:54;99643.61;;;8.76;54.97
61474;BME280;53694;49.784;30.150;2023-05-01T05:45:57;99652.26;;;8.79;54.87
61474;BME280;53694;49.784;30.150;2023-05-01T05:46:58;99643.72;;;8.80;54.82
61474;BME280;53694;49.784;30.150;2023-05-01T05:48:00;99650.42;;;8.83;54.65